createdAt,value
2022-10-13T00:00:41.542Z,5.06
2022-10-13T00:03:10.947Z,5.04
2022-10-13T00:05:43.302Z,4.99
2022-10-13T00:08:14.301Z,5.12
2022-10-13T00:10:51.443Z,5.15
2022-10-13T00:13:25.822Z,5.20
2022-10-13T00:15:54.997Z,5.20
2022-10-13T00:18:24.621Z,5.16
2022-10-13T00:20:53.451Z,5.28
2022-10-13T00:23:22.194Z,5.24
2022-10-13T00:25:53.103Z,5.32
2022-10-13T00:28:23.419Z,5.30
2022-10-13T00:30:52.170Z,5.38
2022-10-13T00:33:20.870Z,5.35
2022-10-13T00:35:51.448Z,5.42
2022-10-13T00:38:23.254Z,5.47
2022-10-13T00:40:56.289Z,5.52
2022-10-13T00:46:12.925Z,5.61
2022-10-13T00:48:44.611Z,5.56
2022-10-13T00:51:20.653Z,5.54
2022-10-13T00:53:56.808Z,5.56
2022-10-13T00:56:30.444Z,5.56
2022-10-13T00:59:01.318Z,5.66
2022-10-13T01:01:30.801Z,5.63
2022-10-13T01:03:59.945Z,5.65
2022-10-13T01:06:32.001Z,5.58
2022-10-13T01:09:01.897Z,5.53
2022-10-13T01:11:54.931Z,5.53
2022-10-13T01:14:35.393Z,5.63
2022-10-13T01:17:16.431Z,5.51
2022-10-13T01:20:38.673Z,5.51
2022-10-13T01:23:31.202Z,5.51
2022-10-13T01:26:44.783Z,5.56
2022-10-13T01:29:50.194Z,5.53
2022-10-13T01:33:07.034Z,5.58
2022-10-13T01:35:54.951Z,5.63
2022-10-13T01:38:38.592Z,5.56
2022-10-13T01:41:16.085Z,5.60
2022-10-13T01:43:51.921Z,5.70
2022-10-13T01:46:27.497Z,5.78
2022-10-13T01:49:04.167Z,5.79
2022-10-13T01:51:35.030Z,5.85
2022-10-13T01:54:04.551Z,5.84
2022-10-13T01:56:40.868Z,5.86
2022-10-13T01:59:15.485Z,5.85
2022-10-13T02:02:04.796Z,5.82
2022-10-13T02:04:54.996Z,5.82
2022-10-13T02:07:30.070Z,5.92
2022-10-13T02:10:13.075Z,5.93
2022-10-13T02:12:54.716Z,5.86
2022-10-13T02:15:29.998Z,5.91
2022-10-13T02:18:05.973Z,5.79
2022-10-13T02:20:38.418Z,5.73
2022-10-13T02:23:14.009Z,5.73
2022-10-13T02:25:44.741Z,5.68
2022-10-13T02:28:16.588Z,5.64
2022-10-13T02:30:49.548Z,5.64
2022-10-13T02:33:18.569Z,5.61
2022-10-13T02:35:48.713Z,5.56
2022-10-13T02:38:17.455Z,5.60
2022-10-13T02:40:47.139Z,5.54
2022-10-13T02:43:16.941Z,5.51
2022-10-13T02:45:46.170Z,5.42
2022-10-13T02:48:15.093Z,5.34
2022-10-13T02:50:44.345Z,5.44
2022-10-13T02:53:17.232Z,5.32
2022-10-13T02:55:46.708Z,5.30
2022-10-13T02:58:15.980Z,5.21
2022-10-13T03:01:15.304Z,5.23
2022-10-13T03:03:46.286Z,5.13
2022-10-13T03:06:15.631Z,5.11
2022-10-13T03:08:46.007Z,5.07
2022-10-13T03:11:15.549Z,5.04
2022-10-13T03:13:50.554Z,5.03
2022-10-13T03:16:19.437Z,4.93
2022-10-13T03:18:48.224Z,4.93
2022-10-13T03:21:17.121Z,4.95
2022-10-13T03:23:47.243Z,4.93
2022-10-13T03:26:18.160Z,4.80
2022-10-13T03:28:51.748Z,4.83
2022-10-13T03:31:20.793Z,4.72
2022-10-13T03:33:49.752Z,4.68
2022-10-13T03:36:23.354Z,4.60
2022-10-13T03:38:53.463Z,4.62
2022-10-13T03:41:22.882Z,4.65
2022-10-13T03:43:53.532Z,4.65
2022-10-13T03:46:29.474Z,4.59
2022-10-13T03:49:00.456Z,4.49
2022-10-13T03:51:32.196Z,4.55
2022-10-13T03:54:02.806Z,4.57
2022-10-13T03:56:36.336Z,4.52
2022-10-13T03:59:05.259Z,4.42
2022-10-13T04:01:34.951Z,4.34
2022-10-13T04:04:08.221Z,4.28
2022-10-13T04:06:36.923Z,4.42
2022-10-13T04:09:08.057Z,4.30
2022-10-13T04:11:40.015Z,4.34
2022-10-13T04:14:12.464Z,4.16
2022-10-13T04:16:41.212Z,4.19
2022-10-13T04:19:12.890Z,4.19
2022-10-13T04:21:41.829Z,4.14
2022-10-13T04:24:14.584Z,4.24
2022-10-13T04:26:43.564Z,4.09
2022-10-13T04:29:13.997Z,4.02
2022-10-13T04:31:44.093Z,4.00
2022-10-13T04:34:14.646Z,4.02
2022-10-13T04:36:43.395Z,3.87
2022-10-13T04:39:13.572Z,3.87
2022-10-13T04:41:42.239Z,3.77
2022-10-13T04:44:11.136Z,3.83
2022-10-13T04:46:40.247Z,3.72
2022-10-13T04:49:09.091Z,3.74
2022-10-13T04:51:40.589Z,3.83
2022-10-13T04:54:12.832Z,3.85
2022-10-13T04:56:45.247Z,3.84
2022-10-13T04:59:14.491Z,3.86
2022-10-13T05:01:43.656Z,3.90
2022-10-13T05:04:15.330Z,3.93
2022-10-13T05:07:12.544Z,3.89
2022-10-13T05:09:34.671Z,3.95
2022-10-13T05:12:08.798Z,4.02
2022-10-13T05:14:37.686Z,4.00
2022-10-13T05:17:10.081Z,3.97
2022-10-13T05:19:54.193Z,4.11
2022-10-13T05:22:23.590Z,4.11
2022-10-13T05:24:53.687Z,4.18
2022-10-13T05:27:23.278Z,4.08
2022-10-13T05:29:52.444Z,4.14
2022-10-13T05:32:21.438Z,4.21
2022-10-13T05:34:50.911Z,4.28
2022-10-13T05:37:22.748Z,4.30
2022-10-13T05:39:55.526Z,4.36
2022-10-13T05:42:27.994Z,4.39
2022-10-13T05:45:00.373Z,4.52
2022-10-13T05:47:33.735Z,4.53
2022-10-13T05:50:04.118Z,4.46
2022-10-13T05:52:38.266Z,4.71
2022-10-13T05:55:12.274Z,4.72
2022-10-13T05:57:45.142Z,4.81
2022-10-13T06:00:18.765Z,4.79
2022-10-13T06:02:56.519Z,4.83
2022-10-13T06:05:28.610Z,4.89
2022-10-13T06:07:58.612Z,4.88
2022-10-13T06:10:29.225Z,4.95
2022-10-13T06:12:57.995Z,5.00
2022-10-13T06:15:28.276Z,5.16
2022-10-13T06:17:58.316Z,5.09
2022-10-13T06:20:27.589Z,5.12
2022-10-13T06:22:56.728Z,5.22
2022-10-13T06:25:25.650Z,5.19
2022-10-13T06:27:55.757Z,5.23
2022-10-13T06:30:24.691Z,5.23
2022-10-13T06:32:55.497Z,5.26
2022-10-13T06:35:24.690Z,5.23
2022-10-13T06:37:53.547Z,5.35
2022-10-13T06:40:22.261Z,5.42
2022-10-13T06:42:52.133Z,5.51
2022-10-13T06:45:25.872Z,5.54
2022-10-13T06:47:55.015Z,5.62
2022-10-13T06:50:24.116Z,5.59
2022-10-13T06:52:53.233Z,5.77
2022-10-13T06:55:22.248Z,5.79
2022-10-13T06:57:50.911Z,5.79
2022-10-13T07:00:20.120Z,5.84
2022-10-13T07:02:53.484Z,5.89
2022-10-13T07:05:22.508Z,5.97
2022-10-13T07:07:54.245Z,6.07
2022-10-13T07:10:23.390Z,6.21
2022-10-13T07:12:52.179Z,6.18
2022-10-13T07:15:20.881Z,6.28
2022-10-13T07:17:54.045Z,6.29
2022-10-13T07:20:23.181Z,6.44
2022-10-13T07:22:55.070Z,6.46
2022-10-13T07:25:23.910Z,6.53
2022-10-13T07:27:52.599Z,6.58
2022-10-13T07:30:21.490Z,6.75
2022-10-13T07:32:50.769Z,6.80
2022-10-13T07:35:25.833Z,6.91
2022-10-13T07:37:58.365Z,6.91
2022-10-13T07:40:27.305Z,7.01
2022-10-13T07:42:58.108Z,7.10
2022-10-13T07:45:27.508Z,7.24
2022-10-13T07:47:57.075Z,7.35
2022-10-13T07:50:30.030Z,7.50
2022-10-13T07:52:58.683Z,7.53
2022-10-13T07:55:27.508Z,7.59
2022-10-13T07:57:56.410Z,7.63
2022-10-13T08:00:26.352Z,7.74
2022-10-13T08:02:56.354Z,7.85
2022-10-13T08:05:25.248Z,7.94
2022-10-13T08:07:58.289Z,8.01
2022-10-13T08:10:29.439Z,8.07
2022-10-13T08:12:58.227Z,8.23
2022-10-13T08:15:27.110Z,8.29
2022-10-13T08:17:56.672Z,8.39
2022-10-13T08:20:36.186Z,8.40
2022-10-13T08:23:14.771Z,8.54
2022-10-13T08:25:50.577Z,8.56
2022-10-13T08:28:23.220Z,8.67
2022-10-13T08:30:53.520Z,8.68
2022-10-13T08:33:22.592Z,8.78
2022-10-13T08:35:51.729Z,8.87
2022-10-13T08:38:22.685Z,8.90
2022-10-13T08:40:53.397Z,8.96
2022-10-13T08:43:25.344Z,9.08
2022-10-13T08:46:01.381Z,9.13
2022-10-13T08:48:36.362Z,9.22
2022-10-13T08:51:08.855Z,9.21
2022-10-13T08:53:44.354Z,9.30
2022-10-13T08:56:21.175Z,9.31
2022-10-13T08:58:56.785Z,9.37
2022-10-13T09:01:30.905Z,9.46
2022-10-13T09:04:33.103Z,9.52
2022-10-13T09:07:08.372Z,9.52
2022-10-13T09:09:39.772Z,9.57
2022-10-13T09:12:08.781Z,9.63
2022-10-13T09:14:40.493Z,9.71
2022-10-13T09:17:19.816Z,9.72
2022-10-13T09:20:00.858Z,9.78
2022-10-13T09:22:32.427Z,9.84
2022-10-13T09:25:16.982Z,9.90
2022-10-13T09:27:50.062Z,9.88
2022-10-13T09:30:38.733Z,9.89
2022-10-13T09:33:23.472Z,10.03
2022-10-13T09:36:12.314Z,10.10
2022-10-13T09:38:43.582Z,10.20
2022-10-13T09:41:22.163Z,10.22
2022-10-13T09:44:10.485Z,10.29
2022-10-13T09:46:48.922Z,10.26
2022-10-13T09:49:34.763Z,10.33
2022-10-13T09:52:17.831Z,10.38
2022-10-13T09:54:50.240Z,10.36
2022-10-13T09:57:34.290Z,10.43
2022-10-13T10:00:14.727Z,10.46
2022-10-13T10:02:54.186Z,10.48
2022-10-13T10:05:30.614Z,10.54
2022-10-13T10:08:14.045Z,10.57
2022-10-13T10:10:43.329Z,10.54
2022-10-13T10:13:15.584Z,10.54
2022-10-13T10:16:00.067Z,10.56
2022-10-13T10:18:39.175Z,10.57
2022-10-13T10:21:14.814Z,10.65
2022-10-13T10:23:51.490Z,10.67
2022-10-13T10:26:32.380Z,10.67
2022-10-13T10:29:24.561Z,10.75
2022-10-13T10:32:12.553Z,10.81
2022-10-13T10:34:48.671Z,10.80
2022-10-13T10:37:26.885Z,10.93
2022-10-13T10:40:14.034Z,10.93
2022-10-13T10:43:26.882Z,10.92
2022-10-13T10:46:00.441Z,11.03
2022-10-13T10:48:38.032Z,11.05
2022-10-13T10:51:09.859Z,11.18
2022-10-13T10:53:53.648Z,11.25
2022-10-13T10:56:33.767Z,11.18
2022-10-13T10:59:26.209Z,11.25
2022-10-13T11:02:15.974Z,11.27
2022-10-13T11:04:47.285Z,11.47
2022-10-13T11:08:02.086Z,11.52
2022-10-13T11:10:31.558Z,11.57
2022-10-13T11:13:27.475Z,11.58
2022-10-13T11:15:56.812Z,11.63
2022-10-13T11:19:05.913Z,11.67
2022-10-13T11:22:17.089Z,11.73
2022-10-13T11:25:36.414Z,11.73
2022-10-13T11:28:49.091Z,11.77
2022-10-13T11:31:48.347Z,11.88
2022-10-13T11:34:33.235Z,11.88
2022-10-13T11:37:03.708Z,11.97
2022-10-13T11:40:19.203Z,11.93
2022-10-13T11:43:11.259Z,11.98
2022-10-13T11:46:25.844Z,12.03
2022-10-13T11:49:32.023Z,12.07
2022-10-13T11:52:28.330Z,12.09
2022-10-13T11:55:06.624Z,12.09
2022-10-13T11:57:36.821Z,12.15
2022-10-13T12:00:14.523Z,12.07
2022-10-13T12:02:51.639Z,12.13
2022-10-13T12:05:25.977Z,12.12
2022-10-13T12:08:00.351Z,12.06
2022-10-13T12:10:34.444Z,11.98
2022-10-13T12:13:07.057Z,11.91
2022-10-13T12:15:39.540Z,11.86
2022-10-13T12:18:24.298Z,11.85
2022-10-13T12:20:59.037Z,11.93
2022-10-13T12:23:28.989Z,11.97
2022-10-13T12:25:59.280Z,12.11
2022-10-13T12:28:44.272Z,12.04
2022-10-13T12:31:22.324Z,12.16
2022-10-13T12:33:56.372Z,12.16
2022-10-13T12:36:31.260Z,12.27
2022-10-13T12:39:04.583Z,12.34
2022-10-13T12:41:37.227Z,12.44
2022-10-13T12:44:13.384Z,12.46
2022-10-13T12:46:44.947Z,12.37
2022-10-13T12:49:18.051Z,12.29
2022-10-13T12:51:50.500Z,12.18
2022-10-13T12:54:25.545Z,12.17
2022-10-13T12:56:58.817Z,12.13
2022-10-13T12:59:31.867Z,12.12
2022-10-13T13:02:04.002Z,12.18
2022-10-13T13:04:43.295Z,12.15
2022-10-13T13:07:31.603Z,12.16
2022-10-13T13:10:16.447Z,12.19
2022-10-13T13:12:46.338Z,12.09
2022-10-13T13:15:35.700Z,12.08
2022-10-13T13:18:39.772Z,12.01
2022-10-13T13:21:10.173Z,11.98
2022-10-13T13:23:43.281Z,11.92
2022-10-13T13:26:15.356Z,11.94
2022-10-13T13:28:48.463Z,11.94
2022-10-13T13:31:21.326Z,11.92
2022-10-13T13:33:50.529Z,11.94
2022-10-13T13:36:22.098Z,12.01
2022-10-13T13:38:54.969Z,11.99
2022-10-13T13:41:27.726Z,12.00
2022-10-13T13:43:56.736Z,11.95
2022-10-13T13:46:29.227Z,11.96
2022-10-13T13:49:03.441Z,11.86
2022-10-13T13:51:33.628Z,11.78
2022-10-13T13:54:05.472Z,11.73
2022-10-13T13:56:34.606Z,11.66
2022-10-13T13:59:03.382Z,11.59
2022-10-13T14:01:33.810Z,11.57
2022-10-13T14:04:03.202Z,11.47
2022-10-13T14:06:31.969Z,11.41
2022-10-13T14:09:00.725Z,11.29
2022-10-13T14:11:29.424Z,11.20
2022-10-13T14:14:01.958Z,11.06
2022-10-13T14:16:32.296Z,10.99
2022-10-13T14:19:01.295Z,10.89
2022-10-13T14:21:30.642Z,10.82
2022-10-13T14:24:00.750Z,10.71
2022-10-13T14:26:29.709Z,10.67
2022-10-13T14:28:58.972Z,10.58
2022-10-13T14:31:27.697Z,10.52
2022-10-13T14:33:59.021Z,10.46
2022-10-13T14:36:29.715Z,10.36
2022-10-13T14:38:59.148Z,10.32
2022-10-13T14:41:28.229Z,10.23
2022-10-13T14:43:58.303Z,10.15
2022-10-13T14:46:27.421Z,10.10
2022-10-13T14:48:59.041Z,10.01
2022-10-13T14:51:27.902Z,9.99
2022-10-13T14:53:58.952Z,9.89
2022-10-13T14:56:34.406Z,9.82
2022-10-13T14:59:05.953Z,9.75
2022-10-13T15:01:43.740Z,9.67
2022-10-13T15:04:13.800Z,9.61
2022-10-13T15:06:42.833Z,9.53
2022-10-13T15:09:12.991Z,9.48
2022-10-13T15:11:46.335Z,9.45
2022-10-13T15:14:15.247Z,9.47
2022-10-13T15:16:44.154Z,9.41
2022-10-13T15:19:14.197Z,9.43
2022-10-13T15:21:43.224Z,9.37
2022-10-13T15:24:12.794Z,9.34
2022-10-13T15:26:45.822Z,9.31
2022-10-13T15:29:14.763Z,9.22
2022-10-13T15:31:44.030Z,9.17
2022-10-13T15:34:16.555Z,9.13
2022-10-13T15:36:48.940Z,9.10
2022-10-13T15:39:18.325Z,9.11
2022-10-13T15:41:47.632Z,9.05
2022-10-13T15:44:19.762Z,9.04
2022-10-13T15:47:06.583Z,9.01
2022-10-13T15:49:38.716Z,8.96
2022-10-13T15:52:07.633Z,8.96
2022-10-13T15:54:36.577Z,8.85
2022-10-13T15:57:05.586Z,8.77
2022-10-13T15:59:34.526Z,8.75
2022-10-13T16:02:03.929Z,8.73
2022-10-13T16:04:37.287Z,8.73
2022-10-13T16:07:08.036Z,8.62
2022-10-13T16:09:36.877Z,8.64
2022-10-13T16:12:06.381Z,8.54
2022-10-13T16:14:35.434Z,8.54
2022-10-13T16:17:05.309Z,8.43
2022-10-13T16:19:34.566Z,8.38
2022-10-13T16:22:04.171Z,8.39
2022-10-13T16:24:35.264Z,8.35
2022-10-13T16:27:06.307Z,8.24
2022-10-13T16:29:36.352Z,8.27
2022-10-13T16:32:05.667Z,8.18
2022-10-13T16:34:34.967Z,8.18
2022-10-13T16:37:04.301Z,8.13
2022-10-13T16:39:39.930Z,8.14
2022-10-13T16:42:11.668Z,8.12
2022-10-13T16:44:43.915Z,8.09
2022-10-13T16:47:17.445Z,8.07
2022-10-13T16:49:48.270Z,8.07
2022-10-13T16:52:18.530Z,8.01
2022-10-13T16:54:56.841Z,7.94
2022-10-13T16:57:31.280Z,7.91
2022-10-13T17:00:01.494Z,7.82
2022-10-13T17:02:35.796Z,7.91
2022-10-13T17:05:05.342Z,7.85
2022-10-13T17:07:34.482Z,7.84
2022-10-13T17:10:08.082Z,7.77
2022-10-13T17:12:37.296Z,7.66
2022-10-13T17:15:12.479Z,7.58
2022-10-13T17:17:42.576Z,7.61
2022-10-13T17:20:13.796Z,7.59
2022-10-13T17:22:50.233Z,7.50
2022-10-13T17:25:25.111Z,7.42
2022-10-13T17:27:59.687Z,7.43
2022-10-13T17:30:29.226Z,7.28
2022-10-13T17:33:06.904Z,7.34
2022-10-13T17:35:39.160Z,7.25
2022-10-13T17:38:15.802Z,7.14
2022-10-13T17:40:50.012Z,7.16
2022-10-13T17:43:25.680Z,6.98
2022-10-13T17:46:07.469Z,7.07
2022-10-13T17:48:47.632Z,7.02
2022-10-13T17:51:21.266Z,7.00
2022-10-13T17:53:54.364Z,6.87
2022-10-13T17:56:28.838Z,6.81
2022-10-13T17:58:58.396Z,6.83
2022-10-13T18:01:30.179Z,6.80
2022-10-13T18:04:02.723Z,6.76
2022-10-13T18:06:40.142Z,6.63
2022-10-13T18:09:15.747Z,6.61
2022-10-13T18:11:50.556Z,6.56
2022-10-13T18:14:22.475Z,6.54
2022-10-13T18:16:52.713Z,6.58
2022-10-13T18:19:24.072Z,6.55
2022-10-13T18:21:55.342Z,6.49
2022-10-13T18:24:25.411Z,6.49
2022-10-13T18:26:59.463Z,6.49
2022-10-13T18:29:31.443Z,6.39
2022-10-13T18:32:02.864Z,6.35
2022-10-13T18:34:32.258Z,6.33
2022-10-13T18:37:05.849Z,6.40
2022-10-13T18:39:35.625Z,6.33
2022-10-13T18:42:07.345Z,6.26
2022-10-13T18:44:37.079Z,6.24
2022-10-13T18:47:10.553Z,6.21
2022-10-13T18:49:40.059Z,6.22
2022-10-13T18:52:09.733Z,6.20
2022-10-13T18:54:46.517Z,6.12
2022-10-13T18:57:19.881Z,6.16
2022-10-13T18:59:51.898Z,6.12
2022-10-13T19:02:28.721Z,6.11
2022-10-13T19:05:00.407Z,6.04
2022-10-13T19:07:29.910Z,6.04
2022-10-13T19:10:00.280Z,5.98
2022-10-13T19:12:38.311Z,5.94
2022-10-13T19:15:09.293Z,5.93
2022-10-13T19:17:38.637Z,5.84
2022-10-13T19:20:09.170Z,5.79
2022-10-13T19:22:38.669Z,5.76
2022-10-13T19:25:10.329Z,5.70
2022-10-13T19:27:45.650Z,5.65
2022-10-13T19:30:18.946Z,5.64
2022-10-13T19:32:55.943Z,5.60
2022-10-13T19:35:28.837Z,5.62
2022-10-13T19:38:19.714Z,5.61
2022-10-13T19:40:52.838Z,5.60
2022-10-13T19:43:27.294Z,5.63
2022-10-13T19:45:59.792Z,5.70
2022-10-13T19:48:30.281Z,5.70
2022-10-13T19:51:01.921Z,5.63
2022-10-13T19:53:31.482Z,5.61
2022-10-13T19:56:00.976Z,5.64
2022-10-13T19:58:32.108Z,5.67
2022-10-13T20:01:05.747Z,5.56
2022-10-13T20:03:35.131Z,5.63
2022-10-13T20:06:07.444Z,5.57
2022-10-13T20:08:42.082Z,5.60
2022-10-13T20:11:15.151Z,5.55
2022-10-13T20:13:49.706Z,5.62
2022-10-13T20:16:22.762Z,5.69
2022-10-13T20:18:54.389Z,5.72
2022-10-13T20:21:25.172Z,5.78
2022-10-13T20:23:54.815Z,5.84
2022-10-13T20:26:25.142Z,5.86
2022-10-13T20:28:58.249Z,5.78
2022-10-13T20:31:28.070Z,5.91
2022-10-13T20:34:00.782Z,5.89
2022-10-13T20:36:38.506Z,5.93
2022-10-13T20:39:09.252Z,5.93
2022-10-13T20:41:38.451Z,5.99
2022-10-13T20:44:10.388Z,6.00
2022-10-13T20:46:39.521Z,6.00
2022-10-13T20:49:12.589Z,5.98
2022-10-13T20:51:43.726Z,6.09
2022-10-13T20:54:17.041Z,6.07
2022-10-13T20:56:47.301Z,6.10
2022-10-13T20:59:17.465Z,5.98
2022-10-13T21:01:46.448Z,6.16
2022-10-13T21:04:15.181Z,6.28
2022-10-13T21:06:44.290Z,6.28
2022-10-13T21:09:13.385Z,6.30
2022-10-13T21:11:43.977Z,6.35
2022-10-13T21:14:12.959Z,6.42
2022-10-13T21:16:43.385Z,6.40
2022-10-13T21:19:13.441Z,6.33
2022-10-13T21:21:42.291Z,6.55
2022-10-13T21:24:12.311Z,6.41
2022-10-13T21:26:42.235Z,6.54
2022-10-13T21:29:16.052Z,6.53
2022-10-13T21:31:46.264Z,6.63
2022-10-13T21:34:15.032Z,6.69
2022-10-13T21:36:45.047Z,6.72
2022-10-13T21:39:15.554Z,6.60
2022-10-13T21:41:44.389Z,6.63
2022-10-13T21:44:15.110Z,6.70
2022-10-13T21:46:47.493Z,6.69
2022-10-13T21:49:17.185Z,6.69
2022-10-13T21:51:54.799Z,6.68
2022-10-13T21:54:23.773Z,6.78
2022-10-13T21:56:53.193Z,6.77
2022-10-13T21:59:24.313Z,6.78
2022-10-13T22:01:56.905Z,6.77
2022-10-13T22:04:26.123Z,6.76
2022-10-13T22:06:54.912Z,6.81
2022-10-13T22:09:27.186Z,6.87
2022-10-13T22:12:00.775Z,6.88
2022-10-13T22:14:33.167Z,6.75
2022-10-13T22:17:05.713Z,6.97
2022-10-13T22:19:34.582Z,6.89
2022-10-13T22:22:07.181Z,6.93
2022-10-13T22:24:36.414Z,6.91
2022-10-13T22:27:05.988Z,6.88
2022-10-13T22:29:37.439Z,6.86
2022-10-13T22:32:08.699Z,7.00
2022-10-13T22:34:38.045Z,7.03
2022-10-13T22:37:06.689Z,7.07
2022-10-13T22:39:35.488Z,7.05
2022-10-13T22:42:10.599Z,7.12
2022-10-13T22:44:39.320Z,7.18
2022-10-13T22:47:09.407Z,7.19
2022-10-13T22:49:38.106Z,7.22
2022-10-13T22:52:07.379Z,7.25
2022-10-13T22:54:36.166Z,7.19
2022-10-13T22:57:04.877Z,7.33
2022-10-13T22:59:33.616Z,7.17
2022-10-13T23:02:02.312Z,7.25
2022-10-13T23:04:32.375Z,7.31
2022-10-13T23:07:01.408Z,7.33
2022-10-13T23:09:31.132Z,7.26
2022-10-13T23:12:00.096Z,7.29
2022-10-13T23:14:30.048Z,7.35
2022-10-13T23:16:59.125Z,7.22
2022-10-13T23:19:27.881Z,7.36
2022-10-13T23:21:59.068Z,7.30
2022-10-13T23:24:27.854Z,7.37
2022-10-13T23:27:00.477Z,7.35
2022-10-13T23:29:29.504Z,7.41
2022-10-13T23:31:58.236Z,7.49
2022-10-13T23:34:29.098Z,7.47
2022-10-13T23:36:59.377Z,7.46
2022-10-13T23:39:29.564Z,7.45
2022-10-13T23:41:58.911Z,7.54
2022-10-13T23:44:27.607Z,7.48
2022-10-13T23:46:57.484Z,7.54
2022-10-13T23:49:26.175Z,7.50
2022-10-13T23:51:55.025Z,7.51
2022-10-13T23:54:25.281Z,7.50
2022-10-13T23:56:53.965Z,7.56
2022-10-13T23:59:22.580Z,7.56
